METAR Data
IDs: Format: Raw Decoded Include TAF

Data at: 0807 UTC 03 Aug 2021

KBUR 030753Z 10003KT 10SM CLR 23/12 A2997 RMK AO2 SLP132 T02330117 403720200 $
KBUR 030653Z 11003KT 10SM CLR 24/12 A2997 RMK AO2 SLP135 T02390122 $
KBUR 030553Z 11005KT 10SM CLR 24/13 A2997 RMK AO2 SLP134 T02440128 10344 20239 51009 $
KBUR 030453Z 15004KT 10SM CLR 26/12 A2997 RMK AO2 SLP133 T02610122 $
KBUR 030353Z 14003KT 10SM CLR 27/12 A2996 RMK AO2 SLP130 T02720117 $
KBUR 030253Z 13006KT 10SM CLR 29/10 A2994 RMK AO2 SLP125 T02890100 53001 $
KBUR 030153Z 14005KT 10SM CLR 33/05 A2993 RMK AO2 SLP121 T03280050 $
KBUR 030053Z 15007KT 10SM CLR 34/M01 A2993 RMK AO2 SLP121 T03441006 $
KBUR 022353Z 15008KT 10SM CLR 34/03 A2994 RMK AO2 SLP124 T03390028 10372 20311 57010 $
KBUR 022253Z 17009KT 10SM CLR 34/04 A2995 RMK AO2 SLP128 T03440044 $
KBUR 022153Z 17010KT 10SM CLR 36/05 A2996 RMK AO2 SLP130 T03610050 $
KBUR 022053Z 16008KT 10SM CLR 37/08 A2997 RMK AO2 SLP134 T03670078 58022 $
KBUR 021953Z 00000KT 10SM CLR 36/04 A3000 RMK AO2 SLP141 T03610044 $
KBUR 021853Z 12004KT 10SM CLR 34/05 A3002 RMK AO2 SLP150 T03390050 $
KBUR 021753Z VRB03KT 10SM CLR 31/07 A3004 RMK AO2 SLP157 T03060072 10311 20200 58008 $
KBUR 021653Z 15003KT 10SM CLR 28/08 A3005 RMK AO2 SLP162 T02830078 $
KBUR 021553Z 00000KT 10SM CLR 26/08 A3006 RMK AO2 SLP164 T02560083 $
KBUR 021453Z 00000KT 10SM CLR 24/06 A3006 RMK AO2 SLP165 T02390061 51015 $
KBUR 021353Z 00000KT 10SM CLR 21/08 A3005 RMK AO2 SLP162 T02110083 $
KBUR 021253Z 00000KT 10SM CLR 21/11 A3004 RMK AO2 SLP157 T02060111 $
KBUR 021153Z 33003KT 10SM CLR 21/12 A3002 RMK AO2 SLP151 T02060117 10244 20206 53000 $
KBUR 021053Z 15003KT 10SM CLR 21/12 A3002 RMK AO2 SLP150 T02110117 $
KBUR 020953Z 34003KT 10SM CLR 21/11 A3001 RMK AO2 SLP148 T02110111 $
KBUR 020853Z 10005KT 10SM CLR 22/12 A3002 RMK AO2 SLP150 T02170122 56003 $
KBUR 020753Z 14003KT 10SM CLR 22/12 A3002 RMK AO2 SLP151 T02170122 403440189 $
KBUR 020653Z 10004KT 10SM CLR 23/12 A3002 RMK AO2 SLP151 T02280122 $
KBUR 020553Z 11004KT 10SM CLR 24/12 A3003 RMK AO2 SLP153 T02390122 10311 20239 51011 $
KBUR 020453Z 15004KT 10SM CLR 25/12 A3002 RMK AO2 SLP153 T02500117 $
KBUR 020353Z 00000KT 10SM CLR 27/10 A3000 RMK AO2 SLP146 T02670100 $
KBUR 020253Z 12003KT 10SM CLR 28/09 A2999 RMK AO2 SLP143 T02830089 53001 $
KBUR 020153Z 13005KT 10SM CLR 30/10 A2999 RMK AO2 SLP140 T03000100 $
KBUR 020053Z 17008KT 10SM CLR 30/09 A2999 RMK AO2 SLP140 T03000094 $
KBUR 012353Z 17010KT 10SM CLR 31/11 A2999 RMK AO2 SLP141 T03060106 10344 20283 55007 $
KBUR 012253Z 18009KT 10SM CLR 33/11 A2999 RMK AO2 SLP140 T03330106 $
KBUR 012153Z 19008KT 10SM CLR 34/11 A3000 RMK AO2 SLP144 T03390106 $
KBUR 012053Z 15008KT 10SM CLR 33/12 A3001 RMK AO2 SLP147 T03280122 56016 $